< < Back
Terminal Aerodrome Forecast


Current Version              Previous Versions:   1  2  3  4  5  6  7  8  9  

Terminal Aerodrome Forecast

547
FTUS42 KTAE 251500 AAA
TAFABY
TAF AMD
KABY 251537Z 2516/2612 25007KT P6SM BKN021
     FM251800 25008KT P6SM VCTS BKN050CB
     FM260000 22005KT P6SM BKN250=



Latest METAR

238
SAUS70 KWBC 252000 RRC
MTRABY
METAR KABY 251953Z 24004KT 10SM SCT044 BKN055 33/21 A2999 RMK AO2 SLP153
T03280211


USA.gov is the U.S. government's official web portal to all federal, state and local government web resources and services.